PWSweather.com
Personal Weather Stations
Station Observations
KWIATHEL1
Marinette County, Athelstane, WI 54104

Marinette CountyAthelstane, WI 54104

Lat: 45.4, Lon: -88.12

Elevation: 960

Station Type: OS WM-918

http://weather.athelstanewi.com

Latest ConditionsUpdated 10:15:42 AM CDT Friday, Jul 31, 2015
Currently Today's Max Today's Min Today's Average
Temperature 76.3°F24.6°C 76.3°F24.6°C 57.6°F14.2°C 62.4°F16.9°C
Dew Point 55.7°F13.2°C 61.1°F16.2°C 54.5°F12.5°C 56.7°F13.7°C
Winds 7.4 mph WSW11.9 kmh WSW 9.4 mph WSW15.1 kmh WSW - 1.4 mph 2.3 kmh
Wind Gusts 13.8 mph22.2 kmh 13.8 mph22.2 kmh - -
Humidity 49% 93% 49% 83%
Pressure 29.86 in1011.2 mb 29.89 in1012.2 mb 29.86 in1011.2 mb -
Hour Temp Dew Point Humidity Winds Wind Gusts Pressure Precip Precip Rate Daily Precip Total
10:15 AM 76.3°F24.6°C 55.7°F13.2°C 49% 7.4 mph WSW11.9 kmh WSW 13.8 mph22.2 kmh 29.86 in1011.2 mb 0.00 in0.0 mm 0.00 in0.0 mm 0.00 in0.0 mm
10:01 AM 76.3°F24.6°C 55.7°F13.2°C 49% 4.7 mph NE7.6 kmh NE 4.7 mph7.6 kmh 29.86 in1011.2 mb 0.00 in0.0 mm 0.00 in0.0 mm 0.00 in0.0 mm
09:45 AM 75.7°F24.3°C 58.4°F14.7°C 55% 4.7 mph WNW7.6 kmh WNW 11.1 mph17.9 kmh 29.86 in1011.2 mb 0.00 in0.0 mm 0.00 in0.0 mm 0.00 in0.0 mm
09:30 AM 74.3°F23.5°C 58.6°F14.8°C 58% 7.4 mph NNW11.9 kmh NNW 11.1 mph17.9 kmh 29.86 in1011.2 mb 0.00 in0.0 mm 0.00 in0.0 mm 0.00 in0.0 mm
09:15 AM 72.9°F22.7°C 57.7°F14.3°C 59% 9.4 mph WSW15.1 kmh WSW 11.7 mph18.8 kmh 29.86 in1011.2 mb 0.00 in0.0 mm 0.00 in0.0 mm 0.00 in0.0 mm
09:01 AM 70.2°F21.2°C 59.5°F15.3°C 69% 6.7 mph NNW10.8 kmh NNW 6.7 mph10.8 kmh 29.86 in1011.2 mb 0.00 in0.0 mm 0.00 in0.0 mm 0.00 in0.0 mm
08:45 AM 68.9°F20.5°C 60.3°F15.7°C 74% Calm Calm 10.4 mph16.7 kmh 29.86 in1011.2 mb 0.00 in0.0 mm 0.00 in0.0 mm 0.00 in0.0 mm
08:30 AM 67.5°F19.7°C 59.6°F15.3°C 76% Calm Calm -- 29.86 in1011.2 mb 0.00 in0.0 mm 0.00 in0.0 mm 0.00 in0.0 mm
08:15 AM 66.0°F18.9°C 60.4°F15.8°C 82% 8.7 mph WNW14.0 kmh WNW 9.4 mph15.1 kmh 29.86 in1011.2 mb 0.00 in0.0 mm 0.00 in0.0 mm 0.00 in0.0 mm
08:01 AM 64.8°F18.2°C 59.1°F15.1°C 82% Calm Calm -- 29.86 in1011.2 mb 0.00 in0.0 mm 0.00 in0.0 mm 0.00 in0.0 mm
07:45 AM 64.6°F18.1°C 59.6°F15.3°C 84% 4.7 mph SW7.6 kmh SW 6.7 mph10.8 kmh 29.86 in1011.2 mb 0.00 in0.0 mm 0.00 in0.0 mm 0.00 in0.0 mm
07:30 AM 64.2°F17.9°C 60.9°F16.1°C 89% 4.0 mph W6.4 kmh W 9.4 mph15.1 kmh 29.86 in1011.2 mb 0.00 in0.0 mm 0.00 in0.0 mm 0.00 in0.0 mm
07:15 AM 63.1°F17.3°C 61.1°F16.2°C 93% Calm Calm -- 29.86 in1011.2 mb 0.00 in0.0 mm 0.00 in0.0 mm 0.00 in0.0 mm
07:01 AM 61.7°F16.5°C 59.4°F15.2°C 92% Calm Calm -- 29.86 in1011.2 mb 0.00 in0.0 mm 0.00 in0.0 mm 0.00 in0.0 mm
06:45 AM 60.6°F15.9°C 58.0°F14.4°C 91% Calm Calm -- 29.86 in1011.2 mb 0.00 in0.0 mm 0.00 in0.0 mm 0.00 in0.0 mm
06:30 AM 59.4°F15.2°C 56.7°F13.7°C 91% Calm Calm -- 29.86 in1011.2 mb 0.00 in0.0 mm 0.00 in0.0 mm 0.00 in0.0 mm
06:15 AM 58.5°F14.7°C 55.5°F13.1°C 90% Calm Calm -- 29.86 in1011.2 mb 0.00 in0.0 mm 0.00 in0.0 mm 0.00 in0.0 mm
06:00 AM 58.1°F14.5°C 55.5°F13.1°C 91% Calm Calm -- 29.86 in1011.2 mb 0.00 in0.0 mm 0.00 in0.0 mm 0.00 in0.0 mm
05:45 AM 57.6°F14.2°C 54.7°F12.6°C 90% Calm Calm -- 29.86 in1011.2 mb 0.00 in0.0 mm 0.00 in0.0 mm 0.00 in0.0 mm
05:30 AM 57.7°F14.3°C 54.8°F12.7°C 90% Calm Calm -- 29.86 in1011.2 mb 0.00 in0.0 mm 0.00 in0.0 mm 0.00 in0.0 mm
05:15 AM 57.7°F14.3°C 54.8°F12.7°C 90% Calm Calm 4.7 mph7.6 kmh 29.86 in1011.2 mb 0.00 in0.0 mm 0.00 in0.0 mm 0.00 in0.0 mm
05:00 AM 57.7°F14.3°C 54.5°F12.5°C 89% Calm Calm -- 29.86 in1011.2 mb 0.00 in0.0 mm 0.00 in0.0 mm 0.00 in0.0 mm
04:45 AM 57.9°F14.4°C 54.7°F12.6°C 89% Calm Calm -- 29.86 in1011.2 mb 0.00 in0.0 mm 0.00 in0.0 mm 0.00 in0.0 mm
04:30 AM 58.1°F14.5°C 54.9°F12.7°C 89% Calm Calm -- 29.86 in1011.2 mb 0.00 in0.0 mm 0.00 in0.0 mm 0.00 in0.0 mm
04:15 AM 58.3°F14.6°C 55.1°F12.8°C 89% Calm Calm -- 29.86 in1011.2 mb 0.00 in0.0 mm 0.00 in0.0 mm 0.00 in0.0 mm
04:00 AM 58.5°F14.7°C 55.2°F12.9°C 89% Calm Calm -- 29.86 in1011.2 mb 0.00 in0.0 mm 0.00 in0.0 mm 0.00 in0.0 mm
03:45 AM 58.5°F14.7°C 54.9°F12.7°C 88% Calm Calm -- 29.86 in1011.2 mb 0.00 in0.0 mm 0.00 in0.0 mm 0.00 in0.0 mm
03:30 AM 58.5°F14.7°C 54.9°F12.7°C 88% Calm Calm -- 29.86 in1011.2 mb 0.00 in0.0 mm 0.00 in0.0 mm 0.00 in0.0 mm
03:15 AM 58.8°F14.9°C 55.3°F12.9°C 88% Calm Calm -- 29.86 in1011.2 mb 0.00 in0.0 mm 0.00 in0.0 mm 0.00 in0.0 mm
03:00 AM 58.8°F14.9°C 55.3°F12.9°C 88% Calm Calm -- 29.86 in1011.2 mb 0.00 in0.0 mm 0.00 in0.0 mm 0.00 in0.0 mm
02:45 AM 58.8°F14.9°C 55.3°F12.9°C 88% Calm Calm -- 29.86 in1011.2 mb 0.00 in0.0 mm 0.00 in0.0 mm 0.00 in0.0 mm
02:30 AM 59.0°F15.0°C 55.1°F12.8°C 87% Calm Calm -- 29.86 in1011.2 mb 0.00 in0.0 mm 0.00 in0.0 mm 0.00 in0.0 mm
02:15 AM 59.4°F15.2°C 55.5°F13.1°C 87% Calm Calm -- 29.86 in1011.2 mb 0.00 in0.0 mm 0.00 in0.0 mm 0.00 in0.0 mm
02:00 AM 59.7°F15.4°C 55.9°F13.3°C 87% Calm Calm -- 29.86 in1011.2 mb 0.00 in0.0 mm 0.00 in0.0 mm 0.00 in0.0 mm
01:45 AM 59.7°F15.4°C 55.9°F13.3°C 87% Calm Calm -- 29.86 in1011.2 mb 0.00 in0.0 mm 0.00 in0.0 mm 0.00 in0.0 mm
01:30 AM 59.5°F15.3°C 55.7°F13.2°C 87% Calm Calm -- 29.86 in1011.2 mb 0.00 in0.0 mm 0.00 in0.0 mm 0.00 in0.0 mm
01:15 AM 59.7°F15.4°C 55.5°F13.1°C 86% Calm Calm -- 29.86 in1011.2 mb 0.00 in0.0 mm 0.00 in0.0 mm 0.00 in0.0 mm
01:00 AM 59.9°F15.5°C 55.7°F13.2°C 86% Calm Calm -- 29.89 in1012.2 mb 0.00 in0.0 mm 0.00 in0.0 mm 0.00 in0.0 mm
12:45 AM 60.3°F15.7°C 56.1°F13.4°C 86% Calm Calm -- 29.89 in1012.2 mb 0.00 in0.0 mm 0.00 in0.0 mm 0.00 in0.0 mm
12:30 AM 60.6°F15.9°C 56.4°F13.6°C 86% Calm Calm -- 29.86 in1011.2 mb 0.00 in0.0 mm 0.00 in0.0 mm 0.00 in0.0 mm
12:15 AM 60.8°F16.0°C 56.6°F13.7°C 86% Calm Calm -- 29.89 in1012.2 mb 0.00 in0.0 mm 0.00 in0.0 mm 0.00 in0.0 mm
12:01 AM 61.0°F16.1°C 56.5°F13.6°C 85% Calm Calm -- 29.89 in1012.2 mb 0.00 in0.0 mm 0.00 in0.0 mm 0.00 in0.0 mm